createdAt,value
2022-11-06T14:13:58.091Z,17.12
2022-11-06T14:16:28.629Z,18.97
2022-11-06T14:19:01.013Z,20.32
2022-11-06T14:21:43.893Z,21.45
2022-11-06T14:24:28.551Z,22.23
2022-11-06T14:26:55.380Z,22.81
2022-11-06T14:29:28.055Z,23.27
2022-11-06T14:32:19.844Z,23.66
2022-11-06T14:34:47.697Z,23.96
2022-11-06T14:37:30.804Z,24.22
2022-11-06T14:39:57.741Z,24.42
2022-11-06T14:42:27.043Z,24.58
2022-11-06T14:44:58.815Z,24.71
2022-11-06T14:47:29.591Z,24.82
2022-11-06T14:49:58.072Z,24.91
2022-11-06T14:52:25.231Z,24.99
2022-11-06T14:54:58.381Z,25.06
2022-11-06T14:57:39.239Z,25.09
2022-11-06T15:00:06.944Z,25.16
2022-11-06T15:02:35.746Z,25.19
2022-11-06T15:05:08.900Z,25.21
2022-11-06T15:08:07.849Z,25.27
2022-11-06T15:10:43.661Z,25.30
2022-11-06T15:13:13.415Z,25.32
2022-11-06T15:15:42.266Z,25.32
2022-11-06T15:18:14.903Z,25.35
2022-11-06T15:20:42.170Z,25.35
2022-11-06T15:23:14.639Z,25.38
2022-11-06T15:25:57.912Z,25.40
2022-11-06T15:28:27.895Z,25.40
2022-11-06T15:31:04.464Z,25.42
2022-11-06T15:33:55.373Z,25.45
2022-11-06T15:36:22.780Z,25.45
2022-11-06T15:38:49.849Z,25.46
2022-11-06T15:41:19.954Z,25.47
2022-11-06T15:43:49.698Z,25.48
2022-11-06T15:46:23.833Z,25.48
2022-11-06T15:49:17.803Z,25.49
2022-11-06T15:52:00.683Z,25.51
2022-11-06T15:54:36.403Z,25.52
2022-11-06T15:57:06.472Z,25.51
2022-11-06T15:59:33.846Z,25.53
2022-11-06T16:02:04.898Z,25.51
2022-11-06T16:04:33.386Z,25.53
2022-11-06T16:07:00.863Z,25.53
2022-11-06T16:09:28.328Z,25.55
2022-11-06T16:11:55.298Z,25.56
2022-11-06T16:14:22.351Z,25.56
2022-11-06T16:16:51.123Z,25.57
2022-11-06T16:19:33.996Z,25.55
2022-11-06T16:22:07.800Z,25.43
2022-11-06T16:24:40.765Z,25.30
2022-11-06T16:27:08.224Z,25.23
2022-11-06T16:29:35.451Z,25.23
2022-11-06T16:32:15.388Z,25.24
2022-11-06T16:34:44.369Z,25.25
2022-11-06T16:37:16.960Z,25.31
2022-11-06T16:39:49.356Z,25.34
2022-11-06T16:42:22.153Z,25.38
2022-11-06T16:44:50.779Z,25.42
2022-11-06T16:47:18.061Z,25.44
2022-11-06T16:49:54.083Z,25.47
2022-11-06T16:52:35.650Z,25.50
2022-11-06T16:55:22.978Z,25.52
2022-11-06T16:57:55.962Z,25.53
2022-11-06T17:00:24.880Z,25.56
2022-11-06T17:02:52.582Z,25.57
2022-11-06T17:05:24.502Z,25.58
2022-11-06T17:08:19.174Z,25.59
2022-11-06T17:10:46.988Z,25.61
2022-11-06T17:13:22.521Z,25.61
2022-11-06T17:15:53.776Z,25.61
2022-11-06T17:18:23.116Z,25.62
2022-11-06T17:21:01.087Z,25.63
2022-11-06T17:23:29.537Z,25.65
2022-11-06T17:25:59.703Z,25.66
2022-11-06T17:28:26.924Z,25.68
2022-11-06T17:30:54.881Z,25.70
2022-11-06T17:33:21.804Z,25.69
2022-11-06T17:35:49.277Z,25.72
2022-11-06T17:38:17.172Z,25.73
2022-11-06T17:40:44.287Z,25.73
2022-11-06T17:43:12.104Z,25.73
2022-11-06T17:45:40.412Z,25.71
2022-11-06T17:48:06.970Z,25.73
2022-11-06T17:50:56.275Z,25.72
2022-11-06T17:53:22.857Z,25.76
2022-11-06T17:55:50.372Z,25.75
2022-11-06T17:58:17.245Z,25.76
2022-11-06T18:00:44.223Z,25.76
2022-11-06T18:03:19.778Z,25.74
2022-11-06T18:05:47.068Z,25.77
2022-11-06T18:08:14.479Z,25.75
2022-11-06T18:10:41.470Z,25.76
2022-11-06T18:13:08.406Z,25.76
2022-11-06T18:15:35.982Z,25.77
2022-11-06T18:18:03.173Z,25.75
2022-11-06T18:20:30.068Z,25.76
2022-11-06T18:22:56.575Z,25.76
2022-11-06T18:25:23.806Z,25.73
2022-11-06T18:27:51.420Z,25.70
2022-11-06T18:30:18.184Z,25.73
2022-11-06T18:32:46.716Z,25.66
2022-11-06T18:35:13.375Z,25.58
2022-11-06T18:44:24.953Z,25.05
2022-11-06T18:46:51.653Z,24.94
2022-11-06T18:49:18.237Z,24.90
2022-11-06T18:51:44.947Z,24.87
2022-11-06T18:54:12.339Z,24.86
2022-11-06T18:56:39.059Z,24.85
2022-11-06T18:59:08.161Z,24.84
2022-11-06T19:01:35.266Z,24.85
2022-11-06T19:04:03.655Z,24.87
2022-11-06T19:06:30.448Z,24.93
2022-11-06T19:08:57.045Z,24.98
2022-11-06T19:11:23.609Z,25.02
2022-11-06T19:13:51.855Z,25.04
2022-11-06T19:16:19.508Z,25.11
2022-11-06T19:21:29.425Z,25.17
2022-11-06T19:24:03.415Z,25.19
2022-11-06T19:26:33.004Z,25.21
2022-11-06T19:29:00.147Z,25.22
2022-11-06T19:31:30.321Z,25.25
2022-11-06T19:33:58.551Z,25.25
2022-11-06T19:36:25.676Z,25.27
2022-11-06T19:38:52.690Z,25.26
2022-11-06T19:41:19.481Z,25.28
2022-11-06T19:43:46.036Z,25.28
2022-11-06T19:46:12.664Z,25.29
2022-11-06T19:48:41.010Z,25.28
2022-11-06T19:51:12.640Z,25.28
2022-11-06T19:53:40.247Z,25.28
2022-11-06T19:56:08.378Z,25.29
2022-11-06T19:58:35.613Z,25.30
2022-11-06T20:01:09.547Z,25.29
2022-11-06T20:03:36.638Z,25.29
2022-11-06T20:06:07.836Z,25.26
2022-11-06T20:08:36.797Z,25.27
2022-11-06T21:31:10.942Z,25.19
2022-11-06T21:33:41.904Z,25.19
2022-11-06T21:36:13.708Z,25.27
2022-11-06T21:38:41.151Z,25.36
2022-11-06T21:41:09.932Z,25.45
2022-11-06T21:43:36.622Z,25.56
2022-11-06T21:46:08.239Z,25.63
2022-11-06T21:48:50.566Z,25.71
2022-11-06T21:51:29.206Z,25.80
2022-11-06T21:54:14.920Z,25.83
2022-11-06T21:56:42.224Z,25.90
2022-11-06T21:59:11.509Z,25.92
2022-11-06T22:01:38.737Z,25.95
2022-11-06T22:04:05.730Z,25.96
2022-11-06T22:06:32.434Z,25.96
2022-11-06T22:09:00.763Z,25.99
2022-11-06T22:11:33.139Z,25.97
2022-11-06T22:14:01.965Z,25.99
2022-11-06T22:16:31.810Z,25.99
2022-11-06T22:18:59.174Z,26.00
2022-11-06T22:21:28.255Z,25.99
2022-11-06T22:23:55.086Z,25.98
2022-11-06T22:26:23.931Z,25.99
2022-11-06T22:29:00.891Z,25.98
2022-11-06T22:31:29.559Z,25.97
2022-11-06T22:33:56.709Z,25.97
2022-11-06T22:36:23.839Z,25.97
2022-11-06T22:38:50.626Z,25.97
2022-11-06T22:41:20.664Z,25.96
2022-11-06T22:43:47.474Z,25.96
2022-11-06T22:46:20.124Z,25.95
2022-11-06T22:48:47.092Z,25.95
2022-11-06T22:51:16.480Z,25.94
2022-11-06T22:53:43.405Z,25.94
2022-11-06T22:56:12.402Z,25.94
2022-11-06T22:58:39.828Z,25.91
2022-11-06T23:01:06.658Z,25.93
2022-11-06T23:03:33.390Z,25.92
2022-11-06T23:06:03.097Z,25.92
2022-11-06T23:08:30.006Z,25.91
2022-11-06T23:10:56.747Z,25.91
2022-11-06T23:13:24.354Z,25.91
2022-11-06T23:15:51.429Z,25.91
2022-11-06T23:18:17.992Z,25.89
2022-11-06T23:20:47.150Z,25.90
2022-11-06T23:23:14.143Z,25.90
2022-11-06T23:25:41.376Z,25.88
2022-11-06T23:28:07.978Z,25.89
2022-11-06T23:30:34.877Z,25.88
2022-11-06T23:33:01.485Z,25.87
2022-11-06T23:35:32.426Z,25.87
2022-11-06T23:38:00.790Z,25.87
2022-11-06T23:40:27.964Z,25.86
2022-11-06T23:42:56.092Z,25.86
2022-11-06T23:45:41.665Z,25.85
2022-11-06T23:48:13.308Z,25.85
2022-11-06T23:50:41.724Z,25.85
2022-11-06T23:53:08.291Z,25.83
2022-11-06T23:55:35.099Z,25.83
2022-11-06T23:58:01.893Z,25.84
